createdAt,value
2023-04-03T00:01:58.813Z,9.74
2023-04-03T00:07:02.318Z,9.73
2023-04-03T00:12:07.486Z,9.68
2023-04-03T00:17:11.011Z,9.68
2023-04-03T00:22:14.693Z,9.67
2023-04-03T00:27:19.588Z,9.65
2023-04-03T00:32:22.915Z,9.67
2023-04-03T00:37:26.852Z,9.50
2023-04-03T00:42:31.717Z,9.42
2023-04-03T00:47:35.131Z,9.49
2023-04-03T00:52:41.055Z,9.48
2023-04-03T00:57:47.373Z,9.62
2023-04-03T01:02:51.274Z,9.53
2023-04-03T01:07:55.768Z,9.54
2023-04-03T01:13:02.849Z,9.54
2023-04-03T01:18:06.567Z,9.44
2023-04-03T01:23:24.662Z,9.44
2023-04-03T01:28:32.356Z,9.52
2023-04-03T01:33:37.841Z,9.43
2023-04-03T01:38:41.597Z,9.40
2023-04-03T01:43:45.131Z,9.46
2023-04-03T01:48:51.310Z,9.56
2023-04-03T01:53:54.968Z,9.49
2023-04-03T01:58:58.428Z,9.55
2023-04-03T02:04:03.335Z,9.57
2023-04-03T02:09:06.677Z,9.56
2023-04-03T02:14:10.501Z,9.52
2023-04-03T02:19:35.284Z,9.57
2023-04-03T02:24:40.177Z,9.53
2023-04-03T02:29:43.580Z,9.48
2023-04-03T02:34:48.477Z,9.39
2023-04-03T02:39:51.624Z,9.53
2023-04-03T02:44:55.030Z,9.38
2023-04-03T02:49:59.883Z,9.46
2023-04-03T02:55:03.942Z,9.60
2023-04-03T03:00:09.043Z,9.53
2023-04-03T03:05:13.943Z,9.46
2023-04-03T03:10:17.680Z,9.42
2023-04-03T03:15:21.323Z,9.35
2023-04-03T03:20:26.149Z,9.45
2023-04-03T03:25:29.378Z,9.56
2023-04-03T03:30:32.786Z,9.45
2023-04-03T03:35:38.062Z,9.54
2023-04-03T03:40:41.706Z,9.50
2023-04-03T03:45:45.836Z,9.54
2023-04-03T03:50:51.404Z,9.56
2023-04-03T03:55:54.885Z,9.60
2023-04-03T04:00:58.327Z,9.70
2023-04-03T04:06:03.207Z,9.63
2023-04-03T04:11:06.356Z,9.68
2023-04-03T04:16:10.993Z,9.74
2023-04-03T04:21:15.856Z,9.92
2023-04-03T04:26:19.009Z,10.00
2023-04-03T04:31:22.500Z,9.88
2023-04-03T04:36:27.465Z,10.14
2023-04-03T04:41:31.143Z,10.29
2023-04-03T04:46:34.777Z,10.42
2023-04-03T04:51:50.959Z,10.62
2023-04-03T04:56:55.724Z,10.72
2023-04-03T05:01:59.315Z,10.70
2023-04-03T05:07:04.214Z,10.67
2023-04-03T05:12:07.439Z,11.01
2023-04-03T05:17:11.033Z,10.83
2023-04-03T05:22:16.227Z,10.75
2023-04-03T05:27:19.724Z,10.79
2023-04-03T05:32:23.278Z,10.93
2023-04-03T05:37:28.245Z,11.12
2023-04-03T05:42:32.120Z,11.21
2023-04-03T05:47:35.634Z,11.46
2023-04-03T05:52:45.399Z,11.92
2023-04-03T05:57:48.934Z,12.14
2023-04-03T06:02:52.791Z,12.56
2023-04-03T06:07:58.262Z,12.56
2023-04-03T06:13:01.853Z,12.81
2023-04-03T06:18:05.566Z,12.92
2023-04-03T06:23:11.539Z,13.33
2023-04-03T06:28:15.108Z,13.85
2023-04-03T06:33:18.682Z,14.34
2023-04-03T06:38:23.554Z,14.68
2023-04-03T06:43:27.274Z,16.84
2023-04-03T06:48:31.235Z,18.67
2023-04-03T06:53:36.297Z,20.32
2023-04-03T06:58:39.746Z,21.33
2023-04-03T07:03:43.769Z,20.06
2023-04-03T07:08:49.408Z,19.68
2023-04-03T07:13:53.289Z,18.99
2023-04-03T07:18:57.201Z,20.39
2023-04-03T07:24:02.214Z,22.02
2023-04-03T07:29:05.768Z,21.56
2023-04-03T07:34:09.256Z,20.85
2023-04-03T07:39:14.154Z,21.30
2023-04-03T07:44:17.625Z,21.38
2023-04-03T07:49:21.121Z,19.90
2023-04-03T07:54:26.091Z,19.01
2023-04-03T07:59:29.590Z,17.94
2023-04-03T08:04:33.337Z,16.60
2023-04-03T08:09:38.487Z,16.35
2023-04-03T08:14:42.014Z,16.39
2023-04-03T08:19:45.630Z,16.92
2023-04-03T08:24:58.548Z,17.28
2023-04-03T08:30:02.696Z,18.80
2023-04-03T08:35:07.189Z,19.26
2023-04-03T08:40:17.089Z,19.15
2023-04-03T08:45:37.964Z,19.77
2023-04-03T08:50:43.960Z,20.90
2023-04-03T08:55:51.579Z,21.99
2023-04-03T09:01:00.902Z,21.68
2023-04-03T09:06:09.291Z,21.54
2023-04-03T09:11:23.126Z,20.99
2023-04-03T09:16:45.691Z,20.30
2023-04-03T09:21:49.350Z,19.85
2023-04-03T09:27:01.011Z,18.97
2023-04-03T09:32:28.571Z,19.07
2023-04-03T09:37:42.030Z,18.61
2023-04-03T09:42:52.038Z,18.57
2023-04-03T09:48:15.420Z,18.78
2023-04-03T09:53:31.269Z,18.77
2023-04-03T09:58:49.652Z,18.56
2023-04-03T10:04:08.277Z,18.49
2023-04-03T10:09:22.140Z,18.15
2023-04-03T10:14:27.315Z,18.16
2023-04-03T10:19:43.719Z,18.36
2023-04-03T10:24:54.222Z,18.22
2023-04-03T10:30:06.361Z,18.00
2023-04-03T10:35:18.757Z,18.08
2023-04-03T10:40:34.090Z,17.98
2023-04-03T10:45:54.396Z,18.10
2023-04-03T10:51:05.460Z,18.12
2023-04-03T10:56:18.005Z,18.10
2023-04-03T11:01:27.890Z,17.95
2023-04-03T11:06:39.297Z,17.54
2023-04-03T11:11:45.285Z,17.83
2023-04-03T11:16:56.051Z,17.80
2023-04-03T11:22:06.312Z,17.72
2023-04-03T11:27:19.363Z,17.65
2023-04-03T11:33:16.559Z,17.38
2023-04-03T11:38:25.249Z,17.25
2023-04-03T11:43:30.893Z,17.05
2023-04-03T11:49:02.549Z,16.59
2023-04-03T11:54:47.618Z,16.88
2023-04-03T11:59:51.175Z,16.42
2023-04-03T12:05:30.715Z,16.57
2023-04-03T12:10:34.206Z,16.65
2023-04-03T12:15:58.279Z,16.63
2023-04-03T12:21:04.479Z,16.41
2023-04-03T12:26:24.463Z,16.07
2023-04-03T12:31:42.420Z,16.24
2023-04-03T12:37:01.465Z,16.43
2023-04-03T12:42:17.391Z,16.16
2023-04-03T12:47:34.168Z,16.35
2023-04-03T12:52:50.375Z,16.22
2023-04-03T12:57:54.703Z,15.97
2023-04-03T13:02:58.786Z,15.82
2023-04-03T13:08:07.216Z,15.82
2023-04-03T13:13:13.357Z,15.64
2023-04-03T13:18:32.238Z,15.62
2023-04-03T13:23:40.927Z,15.45
2023-04-03T13:28:45.090Z,15.39
2023-04-03T13:33:57.650Z,15.24
2023-04-03T13:39:06.243Z,15.27
2023-04-03T13:44:32.011Z,15.22
2023-04-03T13:49:41.424Z,15.07
2023-04-03T13:54:49.999Z,14.70
2023-04-03T13:59:54.101Z,14.64
2023-04-03T14:05:02.333Z,14.67
2023-04-03T14:10:09.241Z,14.56
2023-04-03T14:15:20.430Z,14.35
2023-04-03T14:20:26.813Z,14.27
2023-04-03T14:25:32.286Z,14.05
2023-04-03T14:30:36.751Z,13.76
2023-04-03T14:35:40.400Z,13.59
2023-04-03T14:40:45.230Z,13.52
2023-04-03T14:45:49.080Z,13.39
2023-04-03T14:51:04.580Z,13.13
2023-04-03T14:56:16.800Z,12.99
2023-04-03T15:01:21.043Z,12.97
2023-04-03T15:06:24.612Z,12.89
2023-04-03T15:11:29.590Z,12.76
2023-04-03T15:16:33.062Z,12.64
2023-04-03T15:21:37.098Z,12.42
2023-04-03T15:26:42.720Z,12.33
2023-04-03T15:31:46.149Z,12.26
2023-04-03T15:36:49.839Z,12.17
2023-04-03T15:41:54.930Z,12.05
2023-04-03T15:46:58.456Z,12.00
2023-04-03T15:52:02.162Z,11.85
2023-04-03T15:57:07.068Z,11.73
2023-04-03T16:02:15.167Z,11.67
2023-04-03T16:07:18.720Z,11.58
2023-04-03T16:12:23.629Z,11.29
2023-04-03T16:17:28.741Z,11.30
2023-04-03T16:22:32.742Z,11.21
2023-04-03T16:27:37.688Z,11.13
2023-04-03T16:32:42.285Z,11.13
2023-04-03T16:37:45.803Z,11.02
2023-04-03T16:42:50.867Z,10.91
2023-04-03T16:47:54.347Z,10.86
2023-04-03T16:52:57.950Z,10.89
2023-04-03T16:58:02.826Z,10.73
2023-04-03T17:03:06.430Z,10.66
2023-04-03T17:08:14.161Z,10.62
2023-04-03T17:13:21.866Z,10.64
2023-04-03T17:18:25.400Z,10.59
2023-04-03T17:23:30.677Z,10.61
2023-04-03T17:28:35.576Z,10.65
2023-04-03T17:33:39.109Z,10.55
2023-04-03T17:38:42.651Z,10.46
2023-04-03T17:43:47.822Z,10.46
2023-04-03T17:48:51.625Z,10.49
2023-04-03T17:53:55.125Z,10.47
2023-04-03T17:59:00.187Z,10.38
2023-04-03T18:04:05.445Z,10.34
2023-04-03T18:09:11.458Z,10.27
2023-04-03T18:14:19.121Z,10.25
2023-04-03T18:19:23.714Z,10.14
2023-04-03T18:24:27.583Z,10.20
2023-04-03T18:29:35.054Z,9.99
2023-04-03T18:34:38.489Z,9.94
2023-04-03T18:39:41.990Z,10.01
2023-04-03T18:44:49.735Z,10.04
2023-04-03T18:49:53.300Z,10.03
2023-04-03T18:54:57.048Z,10.00
2023-04-03T19:00:01.949Z,10.01
2023-04-03T19:05:06.824Z,9.89
2023-04-03T19:10:17.170Z,9.88
2023-04-03T19:15:24.576Z,9.78
2023-04-03T19:20:28.579Z,9.73
2023-04-03T19:25:32.126Z,9.74
2023-04-03T19:30:39.537Z,9.66
2023-04-03T19:35:43.341Z,9.72
2023-04-03T19:40:47.612Z,9.72
2023-04-03T19:45:53.710Z,9.64
2023-04-03T19:50:57.177Z,9.60
2023-04-03T19:56:00.964Z,9.60
2023-04-03T20:01:07.020Z,9.54
2023-04-03T20:06:10.689Z,9.50
2023-04-03T20:11:14.416Z,9.35
2023-04-03T20:16:22.531Z,9.43
2023-04-03T20:21:30.758Z,9.37
2023-04-03T20:26:37.391Z,9.38
2023-04-03T20:31:43.453Z,9.47
2023-04-03T20:36:49.676Z,9.47
2023-04-03T20:41:53.708Z,9.43
2023-04-03T20:46:59.218Z,9.42
2023-04-03T20:52:04.969Z,9.38
2023-04-03T20:57:08.438Z,9.40
2023-04-03T21:02:13.448Z,9.45
2023-04-03T21:07:54.636Z,9.46
2023-04-03T21:13:35.022Z,9.49
2023-04-03T21:19:08.761Z,9.48
2023-04-03T21:24:12.712Z,9.38
2023-04-03T21:29:16.828Z,9.45
2023-04-03T21:34:23.697Z,9.46
2023-04-03T21:39:27.325Z,9.42
2023-04-03T21:44:32.425Z,9.42
2023-04-03T21:49:37.358Z,9.39
2023-04-03T21:54:40.785Z,9.37
2023-04-03T21:59:45.468Z,9.35
2023-04-03T22:04:50.441Z,9.40
2023-04-03T22:09:53.625Z,9.46
2023-04-03T22:14:57.076Z,9.32
2023-04-03T22:20:02.034Z,9.42
2023-04-03T22:25:07.509Z,9.28
2023-04-03T22:30:11.696Z,9.18
2023-04-03T22:35:16.709Z,9.30
2023-04-03T22:40:20.479Z,9.27
2023-04-03T22:45:23.951Z,9.28
2023-04-03T22:50:29.230Z,9.30
2023-04-03T22:55:32.789Z,9.26
2023-04-03T23:00:36.410Z,9.17
2023-04-03T23:05:42.195Z,9.11
2023-04-03T23:10:46.040Z,9.08
2023-04-03T23:15:54.402Z,9.10
2023-04-03T23:21:00.909Z,9.01
2023-04-03T23:26:04.488Z,8.92
2023-04-03T23:31:08.277Z,9.01
2023-04-03T23:36:16.281Z,9.04
2023-04-03T23:41:19.792Z,8.98
2023-04-03T23:46:23.343Z,9.00
2023-04-03T23:51:28.406Z,9.05
2023-04-03T23:56:32.384Z,9.02
